Connexion S'enregistrer

Connexion à votre compte

Identifiant
Mot de passe
Maintenir la connexion active sur ce site

Créer un compte

Pour valider ce formulaire, vous devez remplir tous les champs.
Nom
Identifiant
Mot de passe
Répétez le mot de passe
Adresse e-mail
Répétez l'adresse e-mail

Nous contacter

 Téléphone : +33 (0)4 79 54 41 81

Coordonnées détaillées et accès : cliquez ici

 
LFLB °C
    Ferienhaus Ostsee
[source: ADDS]
METAR
LFLB 161200Z AUTO 36006KT CAVOK 14/11 Q1019 NOSIG =
TAF AMD LFLB 160936Z 1609/1709 VRB02KT 6000 BKN005 BECMG 1609/1611 35006KT CAVOK BECMG 1617/1619 VRB02KT PROB40 TEMPO 1703/1709 3000 BR PROB30 TEMPO 1703/1708 0600 FG SCT002
TAF
TAF AMD LFLB 160936Z 1609/1709 VRB02KT 6000 BKN005 BECMG 1609/1611 35006KT CAVOK BECMG 1617/1619 VRB02KT PROB40 TEMPO 1703/1709 3000 BR PROB30 TEMPO 1703/1708 0600 FG SCT002 =
SR / SS: 05:54 / 16:49 UTC (Lever/Coucher du soleil le 2021-10-16)
JSN Boot template designed by JoomlaShine.com